sensor_id;sensor_type;location;lat;lon;timestamp;temperature;humidity
796;DHT22;381;48.770;9.188;2023-06-10T00:02:38;20.20;85.90
796;DHT22;381;48.770;9.188;2023-06-10T00:07:42;20.20;83.60
796;DHT22;381;48.770;9.188;2023-06-10T00:12:44;20.20;84.70
796;DHT22;381;48.770;9.188;2023-06-10T00:17:46;20.10;84.80
796;DHT22;381;48.770;9.188;2023-06-10T00:22:51;20.00;85.60
796;DHT22;381;48.770;9.188;2023-06-10T00:27:53;20.00;86.60
796;DHT22;381;48.770;9.188;2023-06-10T00:32:55;19.90;85.70
796;DHT22;381;48.770;9.188;2023-06-10T00:37:59;19.90;85.60
796;DHT22;381;48.770;9.188;2023-06-10T00:43:01;19.90;86.70
796;DHT22;381;48.770;9.188;2023-06-10T00:48:04;19.90;87.60
796;DHT22;381;48.770;9.188;2023-06-10T00:53:08;19.80;85.70
796;DHT22;381;48.770;9.188;2023-06-10T00:58:11;19.80;85.90
796;DHT22;381;48.770;9.188;2023-06-10T01:03:13;19.70;88.00
796;DHT22;381;48.770;9.188;2023-06-10T01:08:24;19.70;88.50
796;DHT22;381;48.770;9.188;2023-06-10T01:13:31;19.70;87.10
796;DHT22;381;48.770;9.188;2023-06-10T01:18:34;19.60;87.30
796;DHT22;381;48.770;9.188;2023-06-10T01:23:38;19.60;88.50
796;DHT22;381;48.770;9.188;2023-06-10T01:28:45;19.50;88.90
796;DHT22;381;48.770;9.188;2023-06-10T01:33:51;19.50;89.10
796;DHT22;381;48.770;9.188;2023-06-10T01:38:56;19.40;88.70
796;DHT22;381;48.770;9.188;2023-06-10T01:43:59;19.40;89.50
796;DHT22;381;48.770;9.188;2023-06-10T01:49:01;19.30;90.40
796;DHT22;381;48.770;9.188;2023-06-10T01:54:05;19.30;89.60
796;DHT22;381;48.770;9.188;2023-06-10T01:59:07;19.30;90.00
796;DHT22;381;48.770;9.188;2023-06-10T02:04:09;19.30;90.20
796;DHT22;381;48.770;9.188;2023-06-10T02:09:13;19.20;90.00
796;DHT22;381;48.770;9.188;2023-06-10T02:14:15;19.10;90.40
796;DHT22;381;48.770;9.188;2023-06-10T02:19:17;19.10;90.60
796;DHT22;381;48.770;9.188;2023-06-10T02:24:23;19.10;90.40
796;DHT22;381;48.770;9.188;2023-06-10T02:29:25;19.10;91.10
796;DHT22;381;48.770;9.188;2023-06-10T02:34:27;19.00;90.60
796;DHT22;381;48.770;9.188;2023-06-10T02:39:32;19.00;91.00
796;DHT22;381;48.770;9.188;2023-06-10T02:44:37;19.00;91.10
796;DHT22;381;48.770;9.188;2023-06-10T02:49:40;19.00;91.10
796;DHT22;381;48.770;9.188;2023-06-10T02:54:45;18.90;91.30
796;DHT22;381;48.770;9.188;2023-06-10T02:59:47;18.90;91.30
796;DHT22;381;48.770;9.188;2023-06-10T03:04:50;18.90;91.00
796;DHT22;381;48.770;9.188;2023-06-10T03:09:56;18.80;91.30
796;DHT22;381;48.770;9.188;2023-06-10T03:14:58;18.80;91.20
796;DHT22;381;48.770;9.188;2023-06-10T03:20:01;18.80;91.30
796;DHT22;381;48.770;9.188;2023-06-10T03:25:09;18.70;91.00
796;DHT22;381;48.770;9.188;2023-06-10T03:30:15;18.70;91.40
796;DHT22;381;48.770;9.188;2023-06-10T03:35:20;18.70;91.30
796;DHT22;381;48.770;9.188;2023-06-10T03:40:25;18.70;91.90
796;DHT22;381;48.770;9.188;2023-06-10T03:45:27;18.60;91.40
796;DHT22;381;48.770;9.188;2023-06-10T03:50:31;18.60;92.20
796;DHT22;381;48.770;9.188;2023-06-10T03:55:35;18.70;92.30
796;DHT22;381;48.770;9.188;2023-06-10T04:00:37;18.70;92.60
796;DHT22;381;48.770;9.188;2023-06-10T04:05:42;18.60;91.80
796;DHT22;381;48.770;9.188;2023-06-10T04:10:45;18.70;92.40
796;DHT22;381;48.770;9.188;2023-06-10T04:15:48;18.60;92.60
796;DHT22;381;48.770;9.188;2023-06-10T04:20:52;18.70;92.50
796;DHT22;381;48.770;9.188;2023-06-10T04:25:55;18.60;92.50
796;DHT22;381;48.770;9.188;2023-06-10T04:30:59;18.60;92.80
796;DHT22;381;48.770;9.188;2023-06-10T04:36:04;18.70;93.50
796;DHT22;381;48.770;9.188;2023-06-10T04:41:09;18.70;92.80
796;DHT22;381;48.770;9.188;2023-06-10T04:46:12;18.70;93.30
796;DHT22;381;48.770;9.188;2023-06-10T04:51:14;18.80;93.60
796;DHT22;381;48.770;9.188;2023-06-10T04:56:18;18.80;93.30
796;DHT22;381;48.770;9.188;2023-06-10T05:01:21;18.80;93.90
796;DHT22;381;48.770;9.188;2023-06-10T05:06:23;18.80;93.90
796;DHT22;381;48.770;9.188;2023-06-10T05:11:26;18.90;93.80
796;DHT22;381;48.770;9.188;2023-06-10T05:16:28;18.90;93.70
796;DHT22;381;48.770;9.188;2023-06-10T05:21:30;19.00;93.20
796;DHT22;381;48.770;9.188;2023-06-10T05:26:34;19.00;93.50
796;DHT22;381;48.770;9.188;2023-06-10T05:31:38;19.10;93.40
796;DHT22;381;48.770;9.188;2023-06-10T05:36:40;19.10;93.20
796;DHT22;381;48.770;9.188;2023-06-10T05:41:44;19.20;93.70
796;DHT22;381;48.770;9.188;2023-06-10T05:46:46;19.20;94.20
796;DHT22;381;48.770;9.188;2023-06-10T05:51:48;19.30;94.30
796;DHT22;381;48.770;9.188;2023-06-10T05:56:52;19.40;94.60
796;DHT22;381;48.770;9.188;2023-06-10T06:01:54;19.50;94.80
796;DHT22;381;48.770;9.188;2023-06-10T06:06:56;19.60;94.10
796;DHT22;381;48.770;9.188;2023-06-10T06:12:00;19.70;93.40
796;DHT22;381;48.770;9.188;2023-06-10T06:17:02;19.80;94.30
796;DHT22;381;48.770;9.188;2023-06-10T06:22:04;19.90;94.90
796;DHT22;381;48.770;9.188;2023-06-10T06:27:08;20.10;94.20
796;DHT22;381;48.770;9.188;2023-06-10T06:32:11;20.20;94.30
796;DHT22;381;48.770;9.188;2023-06-10T06:37:13;20.30;93.80
796;DHT22;381;48.770;9.188;2023-06-10T06:42:20;20.60;93.50
796;DHT22;381;48.770;9.188;2023-06-10T06:47:32;20.90;93.00
796;DHT22;381;48.770;9.188;2023-06-10T06:52:34;21.20;93.40
796;DHT22;381;48.770;9.188;2023-06-10T06:57:38;21.60;93.30
796;DHT22;381;48.770;9.188;2023-06-10T07:02:40;21.90;92.50
796;DHT22;381;48.770;9.188;2023-06-10T07:07:42;22.20;91.90
796;DHT22;381;48.770;9.188;2023-06-10T07:12:46;22.50;90.90
796;DHT22;381;48.770;9.188;2023-06-10T07:17:48;22.90;90.30
796;DHT22;381;48.770;9.188;2023-06-10T07:22:50;23.30;90.30
796;DHT22;381;48.770;9.188;2023-06-10T07:27:53;23.80;89.00
796;DHT22;381;48.770;9.188;2023-06-10T07:32:55;24.30;86.60
796;DHT22;381;48.770;9.188;2023-06-10T07:37:58;24.80;85.70
796;DHT22;381;48.770;9.188;2023-06-10T07:43:01;25.30;82.50
796;DHT22;381;48.770;9.188;2023-06-10T07:48:03;25.80;82.10
796;DHT22;381;48.770;9.188;2023-06-10T07:53:06;26.40;80.80
796;DHT22;381;48.770;9.188;2023-06-10T07:58:09;26.80;77.80
796;DHT22;381;48.770;9.188;2023-06-10T08:03:11;27.30;77.70
796;DHT22;381;48.770;9.188;2023-06-10T08:08:14;27.70;76.10
796;DHT22;381;48.770;9.188;2023-06-10T08:13:17;28.20;74.30
796;DHT22;381;48.770;9.188;2023-06-10T08:18:19;28.40;71.60
796;DHT22;381;48.770;9.188;2023-06-10T08:23:21;28.70;73.10
796;DHT22;381;48.770;9.188;2023-06-10T08:28:25;29.00;71.20
796;DHT22;381;48.770;9.188;2023-06-10T08:33:27;29.30;69.90
796;DHT22;381;48.770;9.188;2023-06-10T08:38:29;29.50;68.40
796;DHT22;381;48.770;9.188;2023-06-10T08:43:36;29.70;68.20
796;DHT22;381;48.770;9.188;2023-06-10T08:48:43;30.00;67.70
796;DHT22;381;48.770;9.188;2023-06-10T08:53:50;30.20;67.20
796;DHT22;381;48.770;9.188;2023-06-10T08:58:56;30.30;65.90
796;DHT22;381;48.770;9.188;2023-06-10T09:03:59;30.60;65.10
796;DHT22;381;48.770;9.188;2023-06-10T09:09:02;30.90;62.30
796;DHT22;381;48.770;9.188;2023-06-10T09:14:06;31.00;61.10
796;DHT22;381;48.770;9.188;2023-06-10T09:19:08;31.20;62.00
796;DHT22;381;48.770;9.188;2023-06-10T09:24:10;31.40;61.40
796;DHT22;381;48.770;9.188;2023-06-10T09:29:14;31.70;60.70
796;DHT22;381;48.770;9.188;2023-06-10T09:34:16;31.90;60.20
796;DHT22;381;48.770;9.188;2023-06-10T09:39:19;32.60;58.70
796;DHT22;381;48.770;9.188;2023-06-10T09:44:23;33.30;59.10
796;DHT22;381;48.770;9.188;2023-06-10T09:49:28;34.20;56.80
796;DHT22;381;48.770;9.188;2023-06-10T09:54:31;35.10;55.60
796;DHT22;381;48.770;9.188;2023-06-10T09:59:37;35.40;54.50
796;DHT22;381;48.770;9.188;2023-06-10T10:04:39;36.50;52.90
796;DHT22;381;48.770;9.188;2023-06-10T10:09:42;37.70;51.70
796;DHT22;381;48.770;9.188;2023-06-10T10:14:47;37.00;51.00
796;DHT22;381;48.770;9.188;2023-06-10T10:19:53;36.10;52.40
796;DHT22;381;48.770;9.188;2023-06-10T10:24:57;34.90;53.30
796;DHT22;381;48.770;9.188;2023-06-10T10:30:03;33.50;54.60
796;DHT22;381;48.770;9.188;2023-06-10T10:35:13;32.30;56.10
796;DHT22;381;48.770;9.188;2023-06-10T10:40:19;31.40;57.10
796;DHT22;381;48.770;9.188;2023-06-10T10:45:23;30.60;57.80
796;DHT22;381;48.770;9.188;2023-06-10T10:50:28;29.80;60.40
796;DHT22;381;48.770;9.188;2023-06-10T10:55:32;29.30;58.90
796;DHT22;381;48.770;9.188;2023-06-10T11:00:36;28.90;61.30
796;DHT22;381;48.770;9.188;2023-06-10T11:05:40;28.60;61.20
796;DHT22;381;48.770;9.188;2023-06-10T11:10:51;28.50;61.50
796;DHT22;381;48.770;9.188;2023-06-10T11:15:58;28.40;62.00
796;DHT22;381;48.770;9.188;2023-06-10T11:21:01;28.40;60.70
796;DHT22;381;48.770;9.188;2023-06-10T11:26:16;28.20;61.30
796;DHT22;381;48.770;9.188;2023-06-10T11:31:21;28.00;63.00
796;DHT22;381;48.770;9.188;2023-06-10T11:36:23;27.80;63.40
796;DHT22;381;48.770;9.188;2023-06-10T11:41:26;27.60;63.30
796;DHT22;381;48.770;9.188;2023-06-10T11:46:29;27.50;63.70
796;DHT22;381;48.770;9.188;2023-06-10T11:51:34;27.40;63.50
796;DHT22;381;48.770;9.188;2023-06-10T11:56:37;27.30;65.30
796;DHT22;381;48.770;9.188;2023-06-10T12:01:43;27.20;66.60
796;DHT22;381;48.770;9.188;2023-06-10T12:06:46;27.40;63.80
796;DHT22;381;48.770;9.188;2023-06-10T12:11:51;27.40;64.70
796;DHT22;381;48.770;9.188;2023-06-10T12:16:56;27.60;63.20
796;DHT22;381;48.770;9.188;2023-06-10T12:22:00;27.80;61.60
796;DHT22;381;48.770;9.188;2023-06-10T12:27:03;27.90;63.10
796;DHT22;381;48.770;9.188;2023-06-10T12:32:07;28.00;63.30
796;DHT22;381;48.770;9.188;2023-06-10T12:37:12;28.00;61.90
796;DHT22;381;48.770;9.188;2023-06-10T12:42:15;27.90;62.90
796;DHT22;381;48.770;9.188;2023-06-10T12:47:18;27.70;63.70
796;DHT22;381;48.770;9.188;2023-06-10T12:52:20;27.50;62.20
796;DHT22;381;48.770;9.188;2023-06-10T12:57:22;27.40;61.40
796;DHT22;381;48.770;9.188;2023-06-10T13:02:26;27.40;64.50
796;DHT22;381;48.770;9.188;2023-06-10T13:07:28;27.60;61.40
796;DHT22;381;48.770;9.188;2023-06-10T13:12:31;27.60;63.30
796;DHT22;381;48.770;9.188;2023-06-10T13:17:35;27.50;63.00
796;DHT22;381;48.770;9.188;2023-06-10T13:22:37;27.50;62.70
796;DHT22;381;48.770;9.188;2023-06-10T13:27:39;27.50;63.00
796;DHT22;381;48.770;9.188;2023-06-10T13:32:44;27.30;62.90
796;DHT22;381;48.770;9.188;2023-06-10T13:37:46;27.30;63.90
796;DHT22;381;48.770;9.188;2023-06-10T13:42:48;27.30;63.10
796;DHT22;381;48.770;9.188;2023-06-10T13:47:52;27.50;61.20
796;DHT22;381;48.770;9.188;2023-06-10T13:52:54;27.60;61.70
796;DHT22;381;48.770;9.188;2023-06-10T13:57:57;27.50;60.50
796;DHT22;381;48.770;9.188;2023-06-10T14:03:01;27.30;60.90
796;DHT22;381;48.770;9.188;2023-06-10T14:08:04;27.10;63.40
796;DHT22;381;48.770;9.188;2023-06-10T14:13:06;27.10;61.60
796;DHT22;381;48.770;9.188;2023-06-10T14:18:10;27.20;61.90
796;DHT22;381;48.770;9.188;2023-06-10T14:23:12;27.30;63.60
796;DHT22;381;48.770;9.188;2023-06-10T14:28:14;27.30;62.00
796;DHT22;381;48.770;9.188;2023-06-10T14:33:18;27.20;62.30
796;DHT22;381;48.770;9.188;2023-06-10T14:38:20;27.00;64.00
796;DHT22;381;48.770;9.188;2023-06-10T14:43:22;26.90;65.10
796;DHT22;381;48.770;9.188;2023-06-10T14:48:25;26.90;63.70
796;DHT22;381;48.770;9.188;2023-06-10T14:53:27;26.90;63.00
796;DHT22;381;48.770;9.188;2023-06-10T14:58:29;26.90;63.30
796;DHT22;381;48.770;9.188;2023-06-10T15:03:33;26.70;65.70
796;DHT22;381;48.770;9.188;2023-06-10T15:08:35;26.60;64.90
796;DHT22;381;48.770;9.188;2023-06-10T15:13:38;26.40;66.70
796;DHT22;381;48.770;9.188;2023-06-10T15:18:41;26.40;66.10
796;DHT22;381;48.770;9.188;2023-06-10T15:23:44;26.30;66.00
796;DHT22;381;48.770;9.188;2023-06-10T15:28:46;26.40;65.10
796;DHT22;381;48.770;9.188;2023-06-10T15:33:50;26.30;66.60
796;DHT22;381;48.770;9.188;2023-06-10T15:38:52;26.30;66.50
796;DHT22;381;48.770;9.188;2023-06-10T15:43:54;26.30;65.40
796;DHT22;381;48.770;9.188;2023-06-10T15:48:57;26.40;62.50
796;DHT22;381;48.770;9.188;2023-06-10T15:54:01;26.40;66.00
796;DHT22;381;48.770;9.188;2023-06-10T15:59:03;26.40;65.20
796;DHT22;381;48.770;9.188;2023-06-10T16:04:06;26.50;64.10
796;DHT22;381;48.770;9.188;2023-06-10T16:09:08;26.50;63.20
796;DHT22;381;48.770;9.188;2023-06-10T16:14:11;26.50;63.40
796;DHT22;381;48.770;9.188;2023-06-10T16:19:15;26.40;64.70
796;DHT22;381;48.770;9.188;2023-06-10T16:24:17;26.30;64.20
796;DHT22;381;48.770;9.188;2023-06-10T16:29:19;26.20;65.40
796;DHT22;381;48.770;9.188;2023-06-10T16:34:23;26.20;68.70
796;DHT22;381;48.770;9.188;2023-06-10T16:39:25;26.10;66.40
796;DHT22;381;48.770;9.188;2023-06-10T16:44:27;26.20;68.10
796;DHT22;381;48.770;9.188;2023-06-10T16:49:30;26.20;66.30
796;DHT22;381;48.770;9.188;2023-06-10T16:54:33;26.20;66.00
796;DHT22;381;48.770;9.188;2023-06-10T16:59:36;26.20;64.20
796;DHT22;381;48.770;9.188;2023-06-10T17:04:40;26.20;65.50
796;DHT22;381;48.770;9.188;2023-06-10T17:09:42;26.20;66.00
796;DHT22;381;48.770;9.188;2023-06-10T17:14:44;26.20;66.80
796;DHT22;381;48.770;9.188;2023-06-10T17:19:47;26.30;67.40
796;DHT22;381;48.770;9.188;2023-06-10T17:24:50;26.40;66.30
796;DHT22;381;48.770;9.188;2023-06-10T17:29:52;26.40;66.50
796;DHT22;381;48.770;9.188;2023-06-10T17:34:55;26.40;66.70
796;DHT22;381;48.770;9.188;2023-06-10T17:39:57;26.30;68.50
796;DHT22;381;48.770;9.188;2023-06-10T17:44:59;26.20;67.50
796;DHT22;381;48.770;9.188;2023-06-10T17:50:03;26.10;67.70
796;DHT22;381;48.770;9.188;2023-06-10T17:55:06;26.10;66.30
796;DHT22;381;48.770;9.188;2023-06-10T18:00:08;26.20;65.40
796;DHT22;381;48.770;9.188;2023-06-10T18:05:13;26.10;66.30
796;DHT22;381;48.770;9.188;2023-06-10T18:10:15;26.00;68.60
796;DHT22;381;48.770;9.188;2023-06-10T18:15:17;25.80;69.50
796;DHT22;381;48.770;9.188;2023-06-10T18:20:21;25.70;73.10
796;DHT22;381;48.770;9.188;2023-06-10T18:25:23;25.50;72.90
796;DHT22;381;48.770;9.188;2023-06-10T18:30:25;25.30;74.70
796;DHT22;381;48.770;9.188;2023-06-10T18:35:29;25.20;77.10
796;DHT22;381;48.770;9.188;2023-06-10T18:40:32;25.00;77.30
796;DHT22;381;48.770;9.188;2023-06-10T18:45:34;24.90;78.10
796;DHT22;381;48.770;9.188;2023-06-10T18:50:37;24.80;77.20
796;DHT22;381;48.770;9.188;2023-06-10T18:55:39;24.70;78.50
796;DHT22;381;48.770;9.188;2023-06-10T19:00:41;24.60;76.80
796;DHT22;381;48.770;9.188;2023-06-10T19:05:45;24.60;78.80
796;DHT22;381;48.770;9.188;2023-06-10T19:10:47;24.50;75.60
796;DHT22;381;48.770;9.188;2023-06-10T19:15:49;24.40;77.10
796;DHT22;381;48.770;9.188;2023-06-10T19:20:53;24.30;76.20
796;DHT22;381;48.770;9.188;2023-06-10T19:25:55;24.30;75.80
796;DHT22;381;48.770;9.188;2023-06-10T19:30:57;24.20;76.10
796;DHT22;381;48.770;9.188;2023-06-10T19:36:01;24.20;76.00
796;DHT22;381;48.770;9.188;2023-06-10T19:41:03;24.10;76.10
796;DHT22;381;48.770;9.188;2023-06-10T19:46:05;24.00;75.80
796;DHT22;381;48.770;9.188;2023-06-10T19:51:09;24.00;76.60
796;DHT22;381;48.770;9.188;2023-06-10T19:56:11;24.00;76.90
796;DHT22;381;48.770;9.188;2023-06-10T20:01:19;23.90;76.60
796;DHT22;381;48.770;9.188;2023-06-10T20:06:22;23.90;76.70
796;DHT22;381;48.770;9.188;2023-06-10T20:11:24;23.90;77.60
796;DHT22;381;48.770;9.188;2023-06-10T20:16:27;23.80;77.50
796;DHT22;381;48.770;9.188;2023-06-10T20:21:30;23.80;78.50
796;DHT22;381;48.770;9.188;2023-06-10T20:26:33;23.70;77.70
796;DHT22;381;48.770;9.188;2023-06-10T20:31:35;23.70;77.20
796;DHT22;381;48.770;9.188;2023-06-10T20:36:38;23.70;77.50
796;DHT22;381;48.770;9.188;2023-06-10T20:41:40;23.70;77.50
796;DHT22;381;48.770;9.188;2023-06-10T20:46:42;23.60;78.00
796;DHT22;381;48.770;9.188;2023-06-10T20:51:46;23.60;78.40
796;DHT22;381;48.770;9.188;2023-06-10T20:56:48;23.50;78.60
796;DHT22;381;48.770;9.188;2023-06-10T21:01:50;23.40;79.40
796;DHT22;381;48.770;9.188;2023-06-10T21:06:54;23.40;78.70
796;DHT22;381;48.770;9.188;2023-06-10T21:11:58;23.40;78.40
796;DHT22;381;48.770;9.188;2023-06-10T21:17:04;23.40;78.70
796;DHT22;381;48.770;9.188;2023-06-10T21:22:07;23.40;78.90
796;DHT22;381;48.770;9.188;2023-06-10T21:27:09;23.40;79.50
796;DHT22;381;48.770;9.188;2023-06-10T21:32:12;23.40;79.80
796;DHT22;381;48.770;9.188;2023-06-10T21:37:15;23.40;80.10
796;DHT22;381;48.770;9.188;2023-06-10T21:42:18;23.30;81.20
796;DHT22;381;48.770;9.188;2023-06-10T21:47:20;23.20;81.10
796;DHT22;381;48.770;9.188;2023-06-10T21:52:43;23.10;82.00
796;DHT22;381;48.770;9.188;2023-06-10T21:57:45;23.10;81.60
796;DHT22;381;48.770;9.188;2023-06-10T22:02:47;23.00;82.00
796;DHT22;381;48.770;9.188;2023-06-10T22:07:51;23.00;81.80
796;DHT22;381;48.770;9.188;2023-06-10T22:12:53;23.00;82.80
796;DHT22;381;48.770;9.188;2023-06-10T22:17:58;22.90;83.30
796;DHT22;381;48.770;9.188;2023-06-10T22:23:02;22.90;84.00
796;DHT22;381;48.770;9.188;2023-06-10T22:28:04;22.80;83.70
796;DHT22;381;48.770;9.188;2023-06-10T22:33:06;22.70;84.00
796;DHT22;381;48.770;9.188;2023-06-10T22:38:11;22.60;85.80
796;DHT22;381;48.770;9.188;2023-06-10T22:43:15;22.50;85.30
796;DHT22;381;48.770;9.188;2023-06-10T22:48:17;22.40;85.10
796;DHT22;381;48.770;9.188;2023-06-10T22:53:21;22.30;85.30
796;DHT22;381;48.770;9.188;2023-06-10T22:58:23;22.30;85.40
796;DHT22;381;48.770;9.188;2023-06-10T23:03:26;22.10;86.10
796;DHT22;381;48.770;9.188;2023-06-10T23:08:29;22.10;86.40
796;DHT22;381;48.770;9.188;2023-06-10T23:13:31;22.00;86.80
796;DHT22;381;48.770;9.188;2023-06-10T23:18:34;21.90;88.30
796;DHT22;381;48.770;9.188;2023-06-10T23:23:38;21.80;87.40
796;DHT22;381;48.770;9.188;2023-06-10T23:28:41;21.80;88.20
796;DHT22;381;48.770;9.188;2023-06-10T23:33:43;21.70;88.00
796;DHT22;381;48.770;9.188;2023-06-10T23:38:51;21.70;88.00
796;DHT22;381;48.770;9.188;2023-06-10T23:43:53;21.60;88.60
796;DHT22;381;48.770;9.188;2023-06-10T23:48:55;21.60;88.70
796;DHT22;381;48.770;9.188;2023-06-10T23:53:59;21.60;89.20
796;DHT22;381;48.770;9.188;2023-06-10T23:59:01;21.50;90.00
